Terminal Aerodrome Forecast
Issued by NWS Portland, ME

Home | Current Version | Previous Version | Text Only | Print | Product List | Glossary On
Versions: 1 2 3 4 5 6 7 8 9 10 11 12 13 14 15 16
000
FTUS41 KGYX 221120
TAFPWM
TAF
KPWM 221120Z 2212/2312 29005KT P6SM SCT250
     FM221600 17006KT P6SM SCT050 SCT250
     FM230100 VRB03KT P6SM BKN130=

USA.gov is the U.S. government's official web portal to all federal, state and local government web resources and services.